createdAt,value
2023-02-02T00:01:24.727Z,100836.72
2023-02-02T00:03:56.033Z,100828.91
2023-02-02T00:06:27.586Z,100835.13
2023-02-02T00:08:58.963Z,100847.44
2023-02-02T00:11:31.593Z,100849.91
2023-02-02T00:14:01.667Z,100824.06
2023-02-02T00:16:45.407Z,100837.81
2023-02-02T00:19:16.766Z,100828.19
2023-02-02T00:21:47.483Z,100839.06
2023-02-02T00:24:18.878Z,100844.22
2023-02-02T00:26:52.424Z,100842.63
2023-02-02T00:29:24.087Z,100836.56
2023-02-02T00:31:54.696Z,100822.47
2023-02-02T00:34:25.172Z,100835.84
2023-02-02T00:36:55.264Z,100833.19
2023-02-02T00:39:27.942Z,100827.84
2023-02-02T00:42:00.843Z,100850.66
2023-02-02T00:44:43.323Z,100847.97
2023-02-02T00:47:13.507Z,100846.69
2023-02-02T00:49:43.728Z,100841.19
2023-02-02T00:52:15.328Z,100846.00
2023-02-02T00:54:45.518Z,100846.69
2023-02-02T00:57:18.870Z,100849.72
2023-02-02T00:59:49.099Z,100856.34
2023-02-02T01:02:19.222Z,100857.03
2023-02-02T01:04:49.272Z,100855.59
2023-02-02T01:07:19.506Z,100862.41
2023-02-02T01:09:49.890Z,100866.50
2023-02-02T01:12:23.958Z,100864.91
2023-02-02T01:14:54.087Z,100870.22
2023-02-02T01:17:24.650Z,100860.25
2023-02-02T01:19:54.745Z,100864.91
2023-02-02T01:22:24.925Z,100856.84
2023-02-02T01:24:55.427Z,100855.44
2023-02-02T01:27:28.697Z,100864.50
2023-02-02T01:29:58.998Z,100857.03
2023-02-02T01:32:29.168Z,100869.50
2023-02-02T01:34:59.235Z,100875.69
2023-02-02T01:37:29.410Z,100869.78
2023-02-02T01:39:59.685Z,100868.72
2023-02-02T01:42:32.470Z,100886.72
2023-02-02T01:45:08.767Z,100886.00
2023-02-02T01:47:40.972Z,100892.44
2023-02-02T01:50:13.185Z,100889.22
2023-02-02T01:52:44.870Z,100894.06
2023-02-02T01:55:17.149Z,100894.97
2023-02-02T01:57:55.195Z,100908.50
2023-02-02T02:00:28.019Z,100903.50
2023-02-02T02:03:00.258Z,100894.44
2023-02-02T02:05:33.386Z,100910.66
2023-02-02T02:08:07.278Z,100903.34
2023-02-02T02:10:37.726Z,100903.91
2023-02-02T02:13:11.197Z,100908.16
2023-02-02T02:15:57.176Z,100909.06
2023-02-02T02:18:31.717Z,100912.81
2023-02-02T02:21:38.476Z,100918.53
2023-02-02T02:24:46.395Z,100907.13
2023-02-02T02:27:27.122Z,100917.63
2023-02-02T02:30:17.903Z,100938.44
2023-02-02T02:32:52.279Z,100939.69
2023-02-02T02:35:28.286Z,100921.88
2023-02-02T02:38:03.425Z,100944.69
2023-02-02T02:40:38.077Z,100950.88
2023-02-02T02:43:12.037Z,100947.31
2023-02-02T02:45:44.859Z,100949.59
2023-02-02T02:48:19.491Z,100947.47
2023-02-02T02:50:50.201Z,100952.78
2023-02-02T02:53:23.074Z,100952.38
2023-02-02T02:55:57.547Z,100967.00
2023-02-02T02:58:31.902Z,100970.50
2023-02-02T03:01:05.747Z,100926.22
2023-02-02T03:03:45.776Z,100971.56
2023-02-02T03:06:19.863Z,100974.38
2023-02-02T03:08:52.128Z,100978.28
2023-02-02T03:11:22.667Z,100976.50
2023-02-02T03:13:53.068Z,100975.78
2023-02-02T03:16:23.317Z,100976.50
2023-02-02T03:18:56.230Z,100972.94
2023-02-02T03:21:26.487Z,100978.59
2023-02-02T03:23:56.771Z,100968.63
2023-02-02T03:26:27.070Z,100971.13
2023-02-02T03:28:58.519Z,100973.63
2023-02-02T03:31:29.892Z,100971.84
2023-02-02T03:34:02.878Z,100969.34
2023-02-02T03:36:33.229Z,100974.34
2023-02-02T03:39:03.444Z,100975.25
2023-02-02T03:41:33.626Z,100980.22
2023-02-02T03:44:03.777Z,100987.88
2023-02-02T03:46:34.024Z,100985.22
2023-02-02T03:49:06.742Z,100994.97
2023-02-02T03:51:37.075Z,101000.50
2023-02-02T03:54:07.423Z,100987.84
2023-02-02T03:56:37.737Z,100998.91
2023-02-02T03:59:08.051Z,101013.63
2023-02-02T04:01:38.270Z,101008.47
2023-02-02T04:04:11.166Z,101013.47
2023-02-02T04:06:41.298Z,101026.63
2023-02-02T04:09:11.407Z,101023.06
2023-02-02T04:11:41.401Z,101036.59
2023-02-02T04:14:12.567Z,101032.31
2023-02-02T04:16:42.651Z,101020.34
2023-02-02T04:19:16.029Z,101032.63
2023-02-02T04:21:46.195Z,101034.75
2023-02-02T04:24:17.235Z,101039.34
2023-02-02T04:26:47.360Z,101045.03
2023-02-02T04:29:17.763Z,101048.63
2023-02-02T04:31:47.911Z,101044.16
2023-02-02T04:34:20.685Z,101039.69
2023-02-02T04:36:51.045Z,101047.84
2023-02-02T04:39:21.338Z,101044.59
2023-02-02T04:41:51.797Z,101048.81
2023-02-02T04:44:21.935Z,101046.84
2023-02-02T04:46:51.971Z,101047.53
2023-02-02T04:49:24.755Z,101048.06
2023-02-02T04:51:54.869Z,101053.06
2023-02-02T04:54:24.925Z,101054.25
2023-02-02T04:56:54.942Z,101051.06
2023-02-02T04:59:25.152Z,101054.13
2023-02-02T05:01:55.236Z,101054.31
2023-02-02T05:04:28.120Z,101055.53
2023-02-02T05:06:58.159Z,101059.44
2023-02-02T05:09:28.664Z,101052.47
2023-02-02T05:11:58.698Z,101070.41
2023-02-02T05:14:28.782Z,101059.34
2023-02-02T05:16:58.915Z,101069.31
2023-02-02T05:19:31.616Z,101069.84
2023-02-02T05:22:01.628Z,101062.75
2023-02-02T05:24:31.777Z,101062.94
2023-02-02T05:27:02.032Z,101068.44
2023-02-02T05:29:33.166Z,101077.31
2023-02-02T05:32:03.342Z,101075.00
2023-02-02T05:34:36.226Z,101082.97
2023-02-02T05:37:06.224Z,101086.38
2023-02-02T05:39:36.247Z,101092.44
2023-02-02T05:42:06.483Z,101085.16
2023-02-02T05:44:36.540Z,101087.50
2023-02-02T05:47:06.588Z,101100.38
2023-02-02T05:49:39.298Z,101102.47
2023-02-02T05:52:09.831Z,101098.88
2023-02-02T05:54:40.196Z,101098.19
2023-02-02T05:57:10.364Z,101108.94
2023-02-02T05:59:40.475Z,101110.72
2023-02-02T06:02:11.802Z,101107.31
2023-02-02T06:04:44.547Z,101110.72
2023-02-02T06:07:14.755Z,101111.19
2023-02-02T06:09:44.858Z,101116.78
2023-02-02T06:12:14.905Z,101111.78
2023-02-02T06:14:44.932Z,101111.97
2023-02-02T06:17:15.173Z,101119.31
2023-02-02T06:19:47.960Z,101119.91
2023-02-02T06:22:17.956Z,101118.00
2023-02-02T06:24:48.041Z,101119.78
2023-02-02T06:27:18.115Z,101131.03
2023-02-02T06:29:48.224Z,101135.38
2023-02-02T06:32:18.530Z,101139.84
2023-02-02T06:34:51.415Z,101137.38
2023-02-02T06:37:21.473Z,101136.16
2023-02-02T06:39:51.511Z,101147.69
2023-02-02T06:42:22.156Z,101157.31
2023-02-02T06:44:52.379Z,101149.41
2023-02-02T06:47:22.693Z,101148.16
2023-02-02T06:49:55.296Z,101147.66
2023-02-02T06:52:25.334Z,101144.44
2023-02-02T06:54:55.447Z,101145.53
2023-02-02T06:57:25.612Z,101141.63
2023-02-02T06:59:55.736Z,101146.31
2023-02-02T07:02:26.363Z,101151.34
2023-02-02T07:04:59.077Z,101153.16
2023-02-02T07:07:29.167Z,101152.06
2023-02-02T07:09:59.243Z,101162.03
2023-02-02T07:12:29.843Z,101167.38
2023-02-02T07:15:00.464Z,101169.75
2023-02-02T07:17:30.727Z,101167.66
2023-02-02T07:20:03.960Z,101177.97
2023-02-02T07:22:33.981Z,101175.00
2023-02-02T07:25:04.029Z,101184.81
2023-02-02T07:27:34.199Z,101185.50
2023-02-02T07:30:04.327Z,101188.00
2023-02-02T07:32:34.558Z,101186.75
2023-02-02T07:35:07.876Z,101193.13
2023-02-02T07:37:39.974Z,101192.75
2023-02-02T07:40:11.341Z,101194.34
2023-02-02T07:42:41.385Z,101202.53
2023-02-02T07:45:36.450Z,101203.41
2023-02-02T07:48:03.123Z,101208.09
2023-02-02T07:50:35.920Z,101202.41
2023-02-02T07:53:06.212Z,101206.00
2023-02-02T07:55:36.388Z,101215.13
2023-02-02T07:58:08.027Z,101211.41
2023-02-02T08:00:38.113Z,101224.47
2023-02-02T08:03:08.363Z,101170.63
2023-02-02T08:05:41.279Z,101229.31
2023-02-02T08:08:11.610Z,101225.41
2023-02-02T08:10:42.159Z,101228.63
2023-02-02T08:13:12.257Z,101232.72
2023-02-02T08:15:42.354Z,101243.22
2023-02-02T08:18:12.425Z,101248.63
2023-02-02T08:20:45.165Z,101245.81
2023-02-02T08:23:16.836Z,101246.72
2023-02-02T08:25:46.854Z,101253.97
2023-02-02T08:28:16.860Z,101256.69
2023-02-02T08:30:47.085Z,101254.56
2023-02-02T08:33:17.139Z,101256.34
2023-02-02T08:35:49.788Z,101265.63
2023-02-02T08:38:19.996Z,101265.81
2023-02-02T08:40:50.176Z,101260.31
2023-02-02T08:43:20.449Z,101267.16
2023-02-02T08:46:04.292Z,101267.03
2023-02-02T08:48:35.232Z,101273.16
2023-02-02T08:51:08.800Z,101268.59
2023-02-02T08:53:38.818Z,101269.00
2023-02-02T08:56:12.510Z,101272.97
2023-02-02T08:58:42.680Z,101288.31
2023-02-02T09:01:16.055Z,101289.03
2023-02-02T09:03:46.516Z,101287.56
2023-02-02T09:06:19.890Z,101300.38
2023-02-02T09:08:50.127Z,101294.28
2023-02-02T09:11:21.675Z,101296.09
2023-02-02T09:13:52.369Z,101299.13
2023-02-02T09:16:22.545Z,101304.72
2023-02-02T09:18:52.724Z,101302.06
2023-02-02T09:21:25.660Z,101304.44
2023-02-02T09:23:56.944Z,101306.47
2023-02-02T09:26:27.945Z,101317.41
2023-02-02T09:28:59.118Z,101324.38
2023-02-02T09:31:29.546Z,101321.16
2023-02-02T09:34:02.876Z,101325.66
2023-02-02T09:36:36.221Z,101320.00
2023-02-02T09:39:07.238Z,101328.72
2023-02-02T09:41:57.363Z,101333.50
2023-02-02T09:44:35.566Z,101338.56
2023-02-02T09:47:09.119Z,101343.41
2023-02-02T09:49:42.582Z,101337.19
2023-02-02T09:52:17.052Z,101348.34
2023-02-02T09:54:48.983Z,101355.72
2023-02-02T09:57:22.140Z,101351.31
2023-02-02T09:59:54.101Z,101352.22
2023-02-02T10:02:25.339Z,101365.81
2023-02-02T10:04:58.330Z,101370.25
2023-02-02T10:07:35.693Z,101372.56
2023-02-02T10:10:08.082Z,101371.63
2023-02-02T10:12:47.193Z,101359.88
2023-02-02T10:15:23.366Z,101370.28
2023-02-02T10:17:56.958Z,101379.25
2023-02-02T10:20:41.315Z,101389.13
2023-02-02T10:23:18.282Z,101380.72
2023-02-02T10:25:51.472Z,101387.34
2023-02-02T10:28:22.759Z,101387.16
2023-02-02T10:30:57.519Z,101386.41
2023-02-02T10:33:32.687Z,101384.25
2023-02-02T10:36:09.756Z,101379.38
2023-02-02T10:38:49.291Z,101388.66
2023-02-02T10:41:22.896Z,101398.84
2023-02-02T10:44:03.256Z,101402.06
2023-02-02T10:46:36.572Z,101408.31
2023-02-02T10:49:24.394Z,101413.28
2023-02-02T10:51:58.289Z,101407.41
2023-02-02T10:54:57.162Z,101403.06
2023-02-02T10:57:35.588Z,101399.72
2023-02-02T11:00:09.629Z,101407.06
2023-02-02T11:02:39.759Z,101413.69
2023-02-02T11:05:28.061Z,101416.91
2023-02-02T11:07:58.393Z,101436.41
2023-02-02T11:10:28.657Z,101437.31
2023-02-02T11:13:03.450Z,101438.38
2023-02-02T11:15:33.966Z,101431.56
2023-02-02T11:18:16.120Z,101428.53
2023-02-02T11:20:47.236Z,101438.75
2023-02-02T11:23:20.785Z,101435.16
2023-02-02T11:25:59.728Z,101436.75
2023-02-02T11:28:38.977Z,101441.75
2023-02-02T11:31:09.135Z,101436.19
2023-02-02T11:33:39.285Z,101448.00
2023-02-02T11:36:21.835Z,101455.34
2023-02-02T11:38:52.101Z,101446.59
2023-02-02T11:41:22.342Z,101448.75
2023-02-02T11:43:57.987Z,101441.59
2023-02-02T11:46:32.985Z,101447.28
2023-02-02T11:49:05.054Z,101447.22
2023-02-02T11:51:35.436Z,101447.53
2023-02-02T11:54:08.466Z,101447.88
2023-02-02T11:56:39.513Z,101444.13
2023-02-02T11:59:29.468Z,101446.44
2023-02-02T12:02:14.594Z,101446.81
2023-02-02T12:04:44.679Z,101442.88
2023-02-02T12:07:21.028Z,101439.69
2023-02-02T12:09:51.439Z,101442.72
2023-02-02T12:12:36.571Z,101441.53
2023-02-02T12:15:15.282Z,101437.66
2023-02-02T12:17:46.886Z,101443.41
2023-02-02T12:20:21.340Z,101434.97
2023-02-02T12:23:01.461Z,101437.47
2023-02-02T12:25:44.717Z,101443.34
2023-02-02T12:28:22.943Z,101442.59
2023-02-02T12:31:00.287Z,101446.13
2023-02-02T12:33:35.846Z,101451.88
2023-02-02T12:36:23.932Z,101452.22
2023-02-02T12:39:05.943Z,101448.63
2023-02-02T12:41:59.759Z,101454.13
2023-02-02T12:44:33.554Z,101449.63
2023-02-02T12:47:15.214Z,101456.78
2023-02-02T12:50:00.045Z,101454.09
2023-02-02T12:52:39.859Z,101459.28
2023-02-02T12:55:24.801Z,101459.97
2023-02-02T12:58:06.395Z,101455.34
2023-02-02T13:00:44.626Z,101462.13
2023-02-02T13:03:29.497Z,101464.69
2023-02-02T13:06:12.517Z,101457.19
2023-02-02T13:08:45.582Z,101452.56
2023-02-02T13:11:32.357Z,101456.88
2023-02-02T13:14:04.715Z,101451.84
2023-02-02T13:16:35.150Z,101459.38
2023-02-02T13:19:07.548Z,101467.75
2023-02-02T13:21:41.591Z,101459.53
2023-02-02T13:24:17.349Z,101452.78
2023-02-02T13:26:48.658Z,101453.31
2023-02-02T13:29:23.765Z,101456.91
2023-02-02T13:31:58.265Z,101453.88
2023-02-02T13:34:31.882Z,101458.38
2023-02-02T13:37:06.610Z,101456.94
2023-02-02T13:39:39.267Z,101464.13
2023-02-02T13:42:17.056Z,101468.78
2023-02-02T13:44:49.778Z,101466.97
2023-02-02T13:47:23.550Z,101468.78
2023-02-02T13:49:56.120Z,101461.84
2023-02-02T13:52:35.825Z,101465.78
2023-02-02T13:55:15.635Z,101472.03
2023-02-02T13:58:05.112Z,101477.94
2023-02-02T14:00:38.952Z,101479.75
2023-02-02T14:03:10.211Z,101473.84
2023-02-02T14:05:41.537Z,101486.19
2023-02-02T14:08:20.453Z,101496.75
2023-02-02T14:10:59.464Z,101498.53
2023-02-02T14:13:44.353Z,101497.47
2023-02-02T14:16:23.165Z,101492.28
2023-02-02T14:18:57.941Z,101511.81
2023-02-02T14:21:42.964Z,101503.72
2023-02-02T14:24:27.895Z,101499.81
2023-02-02T14:27:05.518Z,101501.22
2023-02-02T14:29:40.763Z,101508.56
2023-02-02T14:32:25.554Z,101508.19
2023-02-02T14:34:58.298Z,101510.50
2023-02-02T14:37:56.273Z,101510.69
2023-02-02T14:40:32.981Z,101515.84
2023-02-02T14:43:24.911Z,101511.88
2023-02-02T14:46:10.988Z,101523.66
2023-02-02T14:48:41.793Z,101524.38
2023-02-02T14:51:15.162Z,101529.41
2023-02-02T14:53:50.882Z,101523.66
2023-02-02T14:56:21.465Z,101527.06
2023-02-02T14:58:57.352Z,101534.59
2023-02-02T15:01:29.282Z,101540.31
2023-02-02T15:04:00.802Z,101541.75
2023-02-02T15:06:33.985Z,101539.06
2023-02-02T15:09:19.137Z,101551.69
2023-02-02T15:12:04.555Z,101558.69
2023-02-02T15:14:40.791Z,101557.41
2023-02-02T15:17:15.729Z,101567.09
2023-02-02T15:19:49.938Z,101566.53
2023-02-02T15:22:27.107Z,101561.53
2023-02-02T15:24:57.517Z,101573.38
2023-02-02T15:27:28.614Z,101574.22
2023-02-02T15:30:05.765Z,101574.22
2023-02-02T15:32:36.277Z,101584.25
2023-02-02T15:35:08.763Z,101582.63
2023-02-02T15:37:45.109Z,101582.06
2023-02-02T15:40:17.631Z,101587.38
2023-02-02T15:42:57.968Z,101588.81
2023-02-02T15:45:49.211Z,101593.44
2023-02-02T15:48:26.935Z,101594.50
2023-02-02T15:50:57.555Z,101595.34
2023-02-02T15:53:28.739Z,101596.22
2023-02-02T15:55:59.677Z,101594.53
2023-02-02T15:58:32.144Z,101595.59
2023-02-02T16:01:07.021Z,101600.75
2023-02-02T16:03:40.280Z,101611.75
2023-02-02T16:06:11.005Z,101619.97
2023-02-02T16:08:42.165Z,101628.91
2023-02-02T16:11:14.357Z,101628.72
2023-02-02T16:13:46.177Z,101639.41
2023-02-02T16:16:27.634Z,101626.72
2023-02-02T16:19:04.720Z,101630.63
2023-02-02T16:21:35.690Z,101645.44
2023-02-02T16:24:06.868Z,101650.63
2023-02-02T16:26:38.127Z,101656.13
2023-02-02T16:29:08.439Z,101655.25
2023-02-02T16:31:41.268Z,101667.22
2023-02-02T16:34:17.100Z,101659.53
2023-02-02T16:36:47.218Z,101674.22
2023-02-02T16:39:18.700Z,101664.22
2023-02-02T16:41:50.853Z,101671.53
2023-02-02T16:44:34.334Z,101650.75
2023-02-02T16:47:07.500Z,101674.88
2023-02-02T16:49:39.488Z,101675.59
2023-02-02T16:52:14.517Z,101670.41
2023-02-02T16:54:45.784Z,101669.50
2023-02-02T16:57:20.003Z,101658.09
2023-02-02T16:59:51.691Z,101653.09
2023-02-02T17:02:27.471Z,101655.41
2023-02-02T17:04:59.312Z,101662.31
2023-02-02T17:07:30.457Z,101663.91
2023-02-02T17:10:16.290Z,101665.13
2023-02-02T17:12:47.283Z,101663.34
2023-02-02T17:15:34.361Z,101662.25
2023-02-02T17:18:07.778Z,101672.94
2023-02-02T17:20:38.070Z,101672.25
2023-02-02T17:23:09.949Z,101682.25
2023-02-02T17:25:43.333Z,101680.13
2023-02-02T17:28:14.244Z,101683.72
2023-02-02T17:30:45.213Z,101683.34
2023-02-02T17:33:19.485Z,101689.22
2023-02-02T17:35:55.583Z,101689.41
2023-02-02T17:38:27.799Z,101685.13
2023-02-02T17:41:01.117Z,101687.25
2023-02-02T17:43:31.674Z,101681.53
2023-02-02T17:46:02.059Z,101687.94
2023-02-02T17:48:34.774Z,101694.34
2023-02-02T17:51:07.262Z,101690.06
2023-02-02T17:53:37.403Z,101696.66
2023-02-02T17:56:08.172Z,101691.47
2023-02-02T17:58:38.295Z,101696.28
2023-02-02T18:01:08.984Z,101706.06
2023-02-02T18:03:42.494Z,101698.88
2023-02-02T18:06:13.691Z,101695.31
2023-02-02T18:08:45.654Z,101707.81
2023-02-02T18:11:16.616Z,101708.97
2023-02-02T18:13:47.452Z,101697.88
2023-02-02T18:16:17.801Z,101698.91
2023-02-02T18:18:53.726Z,101696.91
2023-02-02T18:21:28.493Z,101689.22
2023-02-02T18:23:59.348Z,101697.25
2023-02-02T18:26:32.059Z,101692.94
2023-02-02T18:29:02.850Z,101689.53
2023-02-02T18:31:36.435Z,101681.84
2023-02-02T18:34:16.815Z,101678.56
2023-02-02T18:36:47.372Z,101682.88
2023-02-02T18:39:17.523Z,101642.91
2023-02-02T18:41:48.345Z,101674.66
2023-02-02T18:44:18.773Z,101669.66
2023-02-02T18:46:49.032Z,101676.78
2023-02-02T18:49:22.066Z,101673.38
2023-02-02T18:51:52.283Z,101670.69
2023-02-02T18:54:22.608Z,101644.19
2023-02-02T18:56:52.880Z,101675.38
2023-02-02T18:59:23.151Z,101681.78
2023-02-02T19:01:53.608Z,101687.69
2023-02-02T19:04:26.664Z,101683.88
2023-02-02T19:07:21.048Z,101639.34
2023-02-02T19:09:53.013Z,101679.50
2023-02-02T19:12:27.136Z,101675.00
2023-02-02T19:14:58.552Z,101679.34
2023-02-02T19:17:28.669Z,101676.09
2023-02-02T19:20:03.372Z,101675.56
2023-02-02T19:22:33.685Z,101669.66
2023-02-02T19:25:03.794Z,101636.66
2023-02-02T19:27:36.312Z,101679.88
2023-02-02T19:30:11.896Z,101650.13
2023-02-02T19:32:42.060Z,101654.34
2023-02-02T19:35:19.249Z,101655.44
2023-02-02T19:37:49.437Z,101655.72
2023-02-02T19:40:21.863Z,101655.03
2023-02-02T19:42:54.547Z,101656.53
2023-02-02T19:45:26.200Z,101658.34
2023-02-02T19:47:57.752Z,101654.31
2023-02-02T19:50:32.000Z,101648.53
2023-02-02T19:53:06.635Z,101650.34
2023-02-02T19:55:39.271Z,101632.78
2023-02-02T19:58:15.582Z,101628.09
2023-02-02T20:00:46.979Z,101622.00
2023-02-02T20:03:19.646Z,101615.31
2023-02-02T20:05:53.272Z,101613.72
2023-02-02T20:08:27.231Z,101618.00
2023-02-02T20:10:57.995Z,101618.53
2023-02-02T20:13:36.760Z,101611.53
2023-02-02T20:16:07.181Z,101614.03
2023-02-02T20:18:41.835Z,101607.75
2023-02-02T20:21:21.344Z,101603.03
2023-02-02T20:23:51.417Z,101606.03
2023-02-02T20:26:26.032Z,101603.34
2023-02-02T20:28:57.929Z,101595.47
2023-02-02T20:31:31.514Z,101596.56
2023-02-02T20:34:01.622Z,101587.47
2023-02-02T20:36:39.648Z,101587.47
2023-02-02T20:39:26.365Z,101579.78
2023-02-02T20:41:57.412Z,101585.88
2023-02-02T20:44:28.109Z,101585.78
2023-02-02T20:47:00.304Z,101579.69
2023-02-02T20:49:31.957Z,101579.78
2023-02-02T20:52:07.931Z,101576.19
2023-02-02T20:54:38.110Z,101570.22
2023-02-02T20:57:08.565Z,101567.81
2023-02-02T20:59:38.638Z,101569.22
2023-02-02T21:02:08.732Z,101565.22
2023-02-02T21:04:39.197Z,101555.66
2023-02-02T21:07:11.807Z,101552.38
2023-02-02T21:09:42.007Z,101548.97
2023-02-02T21:12:12.366Z,101540.56
2023-02-02T21:14:42.557Z,101545.00
2023-02-02T21:17:15.683Z,101536.59
2023-02-02T21:19:46.472Z,101532.09
2023-02-02T21:22:19.142Z,101529.84
2023-02-02T21:24:49.475Z,101530.72
2023-02-02T21:27:19.943Z,101528.94
2023-02-02T21:29:50.103Z,101527.13
2023-02-02T21:32:20.137Z,101538.41
2023-02-02T21:34:51.510Z,101535.19
2023-02-02T21:37:24.188Z,101538.78
2023-02-02T21:39:58.565Z,101532.41
2023-02-02T21:42:29.654Z,101526.13
2023-02-02T21:45:00.672Z,101527.28
2023-02-02T21:47:32.327Z,101526.63
2023-02-02T21:50:05.016Z,101526.13
2023-02-02T21:52:37.876Z,101537.50
2023-02-02T21:55:26.737Z,101533.50
2023-02-02T21:57:59.516Z,101527.78
2023-02-02T22:00:31.118Z,101521.78
2023-02-02T22:03:01.807Z,101518.28
2023-02-02T22:05:36.657Z,101526.34
2023-02-02T22:08:20.113Z,101515.19
2023-02-02T22:10:50.544Z,101507.47
2023-02-02T22:13:21.834Z,101507.59
2023-02-02T22:15:52.872Z,101511.00
2023-02-02T22:18:24.537Z,101511.25
2023-02-02T22:20:56.664Z,101508.47
2023-02-02T22:23:30.603Z,101507.84
2023-02-02T22:26:01.066Z,101498.25
2023-02-02T22:28:35.323Z,101495.66
2023-02-02T22:31:05.518Z,101490.00
2023-02-02T22:33:35.789Z,101487.91
2023-02-02T22:36:06.028Z,101476.88
2023-02-02T22:38:38.657Z,101480.78
2023-02-02T22:41:09.829Z,101477.28
2023-02-02T22:43:39.884Z,101465.59
2023-02-02T22:46:10.175Z,101460.91
2023-02-02T22:48:40.446Z,101449.78
2023-02-02T22:51:10.743Z,101444.34
2023-02-02T22:53:43.423Z,101430.50
2023-02-02T22:56:13.532Z,101431.44
2023-02-02T22:58:43.575Z,101428.78
2023-02-02T23:01:15.506Z,101411.31
2023-02-02T23:03:47.099Z,101401.13
2023-02-02T23:06:17.161Z,101374.28
2023-02-02T23:08:49.790Z,101402.56
2023-02-02T23:11:19.871Z,101409.22
2023-02-02T23:13:50.186Z,101402.94
2023-02-02T23:16:20.451Z,101415.84
2023-02-02T23:18:50.504Z,101409.38
2023-02-02T23:21:20.556Z,101411.53
2023-02-02T23:23:53.193Z,101404.41
2023-02-02T23:26:23.280Z,101404.56
2023-02-02T23:28:53.597Z,101402.97
2023-02-02T23:31:23.838Z,101403.16
2023-02-02T23:33:53.995Z,101399.03
2023-02-02T23:36:23.962Z,101396.53
2023-02-02T23:38:56.565Z,101376.50
2023-02-02T23:41:27.185Z,101370.75
2023-02-02T23:43:57.229Z,101371.84
2023-02-02T23:46:27.521Z,101382.94
2023-02-02T23:48:59.588Z,101373.81
2023-02-02T23:51:30.036Z,101374.50
2023-02-02T23:54:03.469Z,101374.50
2023-02-02T23:56:33.613Z,101380.25
2023-02-02T23:59:03.621Z,101386.16
